Time;durP1;ratioP1;P1;durP2;ratioP2;P2;SDS_P1;SDS_P2;PMS_P1;PMS_P2;Temp;Humidity;BMP_temperature;BMP_pressure;BME280_temperature;BME280_humidity;BME280_pressure;Samples;Min_cycle;Max_cycle;Signal;HPM_P1;HPM_P2
2023/06/03 00:00:54;;;;;;;;;;;;;;;21.55;44.39;100265.69;5367960;32;33487;-75
2023/06/03 00:03:56;;;;;;;;;;;;;;;20.66;46.56;100271.53;5389932;32;33827;-74
2023/06/03 00:06:59;;;;;;;;;;;;;;;21.71;44.25;100267.06;5382532;32;32568;-73
2023/06/03 00:10:01;;;;;;;;;;;;;;;21.67;44.42;100269.12;5391519;32;33693;-75
2023/06/03 00:13:03;;;;;;;;;;;;;;;21.27;45.65;100283.25;5382785;32;32689;-74
2023/06/03 00:16:05;;;;;;;;;;;;;;;20.06;48.64;100295.06;5385989;32;34775;-73
2023/06/03 00:19:07;;;;;;;;;;;;;;;20.23;48.57;100293.72;5377825;32;33028;-73
2023/06/03 00:22:10;;;;;;;;;;;;;;;20.83;46.67;100305.69;5371774;32;36152;-72
2023/06/03 00:25:12;;;;;;;;;;;;;;;21.60;43.87;100300.91;5377436;32;33346;-73
2023/06/03 00:28:14;;;;;;;;;;;;;;;21.62;42.89;100309.66;5380156;32;34155;-73
2023/06/03 00:31:16;;;;;;;;;;;;;;;21.00;44.33;100297.13;5391488;32;33878;-75
2023/06/03 00:34:18;;;;;;;;;;;;;;;21.37;43.10;100302.88;5383044;32;33592;-73
2023/06/03 00:37:20;;;;;;;;;;;;;;;21.17;43.72;100311.72;5369309;32;33689;-75
2023/06/03 00:40:22;;;;;;;;;;;;;;;21.22;43.58;100314.00;5372342;32;35227;-72
2023/06/03 00:43:24;;;;;;;;;;;;;;;20.98;43.81;100312.41;5380284;32;33587;-73
2023/06/03 00:46:26;;;;;;;;;;;;;;;20.87;43.92;100312.50;5377949;32;34053;-72
2023/06/03 00:49:28;;;;;;;;;;;;;;;20.65;44.45;100310.72;5368389;32;34349;-74
2023/06/03 00:52:30;;;;;;;;;;;;;;;20.66;44.50;100306.22;5383696;32;33708;-73
2023/06/03 00:55:32;;;;;;;;;;;;;;;20.61;44.19;100309.31;5352210;32;963857;-73
2023/06/03 00:58:34;;;;;;;;;;;;;;;20.61;44.09;100306.62;5384277;32;33148;-72
2023/06/03 01:01:38;;;;;;;;;;;;;;;20.62;44.13;100304.81;5389092;32;33621;-74
2023/06/03 01:04:45;;;;;;;;;;;;;;;20.34;44.92;100312.34;5366579;32;43754;-74
2023/06/03 01:07:50;;;;;;;;;;;;;;;20.40;44.48;100313.69;5388709;32;33868;-72
2023/06/03 01:11:05;;;;;;;;;;;;;;;20.43;44.13;100311.63;5381266;32;33226;-73
2023/06/03 01:14:10;;;;;;;;;;;;;;;20.33;43.69;100312.47;5373375;32;34073;-73
2023/06/03 01:17:14;;;;;;;;;;;;;;;20.08;44.04;100305.59;5383894;32;43642;-74
2023/06/03 01:20:16;;;;;;;;;;;;;;;19.98;44.17;100309.00;5380504;32;34120;-73
2023/06/03 01:23:23;;;;;;;;;;;;;;;19.85;44.49;100302.94;5389996;32;32330;-72
2023/06/03 01:26:28;;;;;;;;;;;;;;;19.41;45.88;100314.38;5370829;32;33880;-72
2023/06/03 01:29:30;;;;;;;;;;;;;;;19.38;45.76;100306.59;5388536;32;33567;-74
2023/06/03 01:32:32;;;;;;;;;;;;;;;19.43;45.74;100307.97;5381677;32;32960;-74
2023/06/03 01:35:34;;;;;;;;;;;;;;;19.79;44.07;100322.09;5382249;32;33726;-74
2023/06/03 01:38:36;;;;;;;;;;;;;;;19.46;44.93;100307.72;5366603;32;34321;-74
2023/06/03 01:41:40;;;;;;;;;;;;;;;18.76;46.77;100323.72;5383542;32;33003;-72
2023/06/03 01:44:42;;;;;;;;;;;;;;;18.82;46.07;100320.62;5364033;32;45875;-74
2023/06/03 01:47:44;;;;;;;;;;;;;;;18.30;47.54;100315.56;5379901;32;33633;-72
2023/06/03 01:50:46;;;;;;;;;;;;;;;19.07;45.81;100316.13;5387594;32;34555;-74
2023/06/03 01:53:48;;;;;;;;;;;;;;;19.09;45.50;100322.16;5379650;32;35491;-72
2023/06/03 01:56:50;;;;;;;;;;;;;;;18.94;45.74;100326.84;5383736;32;33718;-73
2023/06/03 01:59:52;;;;;;;;;;;;;;;19.37;44.39;100335.06;5394962;32;35599;-73
2023/06/03 02:02:54;;;;;;;;;;;;;;;19.29;43.94;100332.16;5395201;32;34577;-71
2023/06/03 02:05:56;;;;;;;;;;;;;;;19.28;44.07;100343.78;5400062;32;33729;-75
2023/06/03 02:08:58;;;;;;;;;;;;;;;18.54;45.81;100353.69;5380173;32;33711;-72
2023/06/03 02:12:00;;;;;;;;;;;;;;;19.03;45.09;100350.09;5389046;32;33614;-72
2023/06/03 02:15:02;;;;;;;;;;;;;;;19.16;44.17;100350.03;5381523;32;33608;-73
2023/06/03 02:18:06;;;;;;;;;;;;;;;18.79;44.84;100355.44;5382658;32;33865;-73
2023/06/03 02:21:08;;;;;;;;;;;;;;;18.80;45.10;100364.28;5398033;32;33618;-73
2023/06/03 02:24:10;;;;;;;;;;;;;;;19.16;44.42;100360.69;5377060;32;35479;-71
2023/06/03 02:27:14;;;;;;;;;;;;;;;18.97;44.96;100363.03;5383247;32;33665;-71
2023/06/03 02:30:16;;;;;;;;;;;;;;;19.17;44.40;100355.25;5367393;32;33587;-72
2023/06/03 02:33:18;;;;;;;;;;;;;;;18.93;45.25;100357.94;5387901;32;34100;-72
2023/06/03 02:36:20;;;;;;;;;;;;;;;18.79;45.82;100378.56;5382113;32;33214;-73
2023/06/03 02:39:22;;;;;;;;;;;;;;;19.05;44.88;100376.63;5389562;32;36110;-72
2023/06/03 02:42:24;;;;;;;;;;;;;;;19.29;44.00;100369.47;5395380;32;33625;-74
2023/06/03 02:45:26;;;;;;;;;;;;;;;19.24;44.31;100368.94;5380350;32;34533;-74
2023/06/03 02:48:28;;;;;;;;;;;;;;;19.18;44.91;100369.41;5389203;32;33652;-74
2023/06/03 02:51:30;;;;;;;;;;;;;;;19.02;45.39;100371.53;5366487;32;33922;-74
2023/06/03 02:54:32;;;;;;;;;;;;;;;18.02;47.69;100391.12;5386855;32;34251;-74
2023/06/03 02:57:34;;;;;;;;;;;;;;;17.49;49.50;100404.47;5378175;32;34222;-73
2023/06/03 03:00:36;;;;;;;;;;;;;;;18.80;45.57;100394.41;5383244;32;33831;-71
2023/06/03 03:03:38;;;;;;;;;;;;;;;19.15;44.21;100405.12;5378821;32;32954;-73
2023/06/03 03:06:40;;;;;;;;;;;;;;;18.70;44.72;100417.34;5382051;32;33861;-72
2023/06/03 03:09:42;;;;;;;;;;;;;;;18.83;44.58;100404.84;5391486;32;43609;-72
2023/06/03 03:12:44;;;;;;;;;;;;;;;18.37;45.57;100418.78;5368654;32;35149;-74
2023/06/03 03:15:47;;;;;;;;;;;;;;;17.58;47.44;100430.44;5405249;32;34992;-74
2023/06/03 03:18:49;;;;;;;;;;;;;;;18.81;44.38;100425.44;5374399;32;34545;-72
2023/06/03 03:21:51;;;;;;;;;;;;;;;18.59;45.01;100427.88;5381653;32;33727;-75
2023/06/03 03:24:55;;;;;;;;;;;;;;;17.59;47.41;100439.28;5389851;32;34322;-74
2023/06/03 03:27:57;;;;;;;;;;;;;;;18.64;45.07;100439.91;5367622;32;33683;-72
2023/06/03 03:30:59;;;;;;;;;;;;;;;18.58;44.71;100440.34;5394994;32;33707;-74
2023/06/03 03:34:01;;;;;;;;;;;;;;;17.95;46.90;100440.41;5382539;32;33404;-71
2023/06/03 03:37:04;;;;;;;;;;;;;;;19.07;44.10;100438.66;5377577;32;34032;-73
2023/06/03 03:40:19;;;;;;;;;;;;;;;19.21;43.74;100447.31;5368651;32;34046;-74
2023/06/03 03:43:22;;;;;;;;;;;;;;;18.88;44.50;100439.12;5365731;32;34439;-73
2023/06/03 03:46:24;;;;;;;;;;;;;;;19.17;43.86;100445.81;5389102;32;33619;-73
2023/06/03 03:49:31;;;;;;;;;;;;;;;18.74;45.13;100450.78;5381947;32;33711;-73
2023/06/03 03:52:34;;;;;;;;;;;;;;;19.32;43.75;100457.19;5377133;32;33815;-74
2023/06/03 03:55:44;;;;;;;;;;;;;;;19.71;42.93;100460.50;5381260;32;33522;-72
2023/06/03 03:58:49;;;;;;;;;;;;;;;19.46;43.51;100466.81;5366072;32;43393;-73
2023/06/03 04:01:51;;;;;;;;;;;;;;;18.97;44.53;100466.91;5391108;32;34524;-72
2023/06/03 04:04:53;;;;;;;;;;;;;;;19.72;42.77;100473.72;5375311;32;34324;-74
2023/06/03 04:07:55;;;;;;;;;;;;;;;19.46;43.32;100473.00;5401108;32;33665;-72
2023/06/03 04:11:00;;;;;;;;;;;;;;;19.38;43.51;100479.84;5377682;32;33833;-72
2023/06/03 04:14:03;;;;;;;;;;;;;;;19.28;43.90;100485.00;5390200;32;33747;-73
2023/06/03 04:17:08;;;;;;;;;;;;;;;19.52;42.82;100492.16;5368825;32;33891;-71
2023/06/03 04:20:19;;;;;;;;;;;;;;;19.09;43.88;100489.97;5376478;32;45445;-73
2023/06/03 04:23:22;;;;;;;;;;;;;;;19.35;43.47;100488.91;5383256;32;32933;-73
2023/06/03 04:26:25;;;;;;;;;;;;;;;19.07;44.39;100487.44;5374984;32;33808;-71
2023/06/03 04:29:26;;;;;;;;;;;;;;;19.34;43.86;100495.22;5390973;32;33790;-72
2023/06/03 04:32:29;;;;;;;;;;;;;;;19.97;41.92;100486.03;5368049;32;33770;-72
2023/06/03 04:35:31;;;;;;;;;;;;;;;20.06;41.61;100491.63;5375091;32;34451;-72
2023/06/03 04:38:33;;;;;;;;;;;;;;;20.13;41.48;100498.19;5382776;32;33573;-72
2023/06/03 04:41:38;;;;;;;;;;;;;;;20.07;41.65;100486.16;5374095;32;33468;-72
2023/06/03 04:44:41;;;;;;;;;;;;;;;20.35;41.06;100492.91;5379522;32;43983;-72
2023/06/03 04:47:47;;;;;;;;;;;;;;;20.18;41.28;100496.88;5383677;32;33869;-73
2023/06/03 04:50:49;;;;;;;;;;;;;;;20.53;40.50;100495.94;5374911;32;33688;-74
2023/06/03 04:53:51;;;;;;;;;;;;;;;20.18;41.49;100498.69;5379615;32;33753;-72
2023/06/03 04:56:53;;;;;;;;;;;;;;;19.45;43.20;100505.09;5383397;32;33679;-75
2023/06/03 04:59:55;;;;;;;;;;;;;;;20.53;41.10;100506.62;5382661;32;33838;-74
2023/06/03 05:02:59;;;;;;;;;;;;;;;21.29;39.31;100500.50;5380481;32;33733;-74
2023/06/03 05:06:04;;;;;;;;;;;;;;;20.31;41.42;100507.44;5388537;32;33518;-73
2023/06/03 05:09:06;;;;;;;;;;;;;;;22.17;37.20;100502.94;5379639;32;34058;-73
2023/06/03 05:12:09;;;;;;;;;;;;;;;21.68;38.52;100510.72;5386392;32;34227;-74
2023/06/03 05:15:11;;;;;;;;;;;;;;;21.73;37.74;100508.50;5379689;32;44657;-75
2023/06/03 05:18:16;;;;;;;;;;;;;;;22.82;35.29;100511.56;5379648;32;33170;-73
2023/06/03 05:21:19;;;;;;;;;;;;;;;24.11;33.54;100513.31;5387299;32;34267;-72
2023/06/03 05:24:21;;;;;;;;;;;;;;;24.12;32.96;100513.16;5366752;32;31855;-73
2023/06/03 05:27:24;;;;;;;;;;;;;;;22.01;36.82;100523.06;5372539;32;34174;-74
2023/06/03 05:30:28;;;;;;;;;;;;;;;22.15;36.93;100507.59;5357946;32;34076;-74
2023/06/03 05:33:31;;;;;;;;;;;;;;;24.28;33.40;100510.72;5387772;32;33182;-72
2023/06/03 05:36:33;;;;;;;;;;;;;;;22.65;35.87;100522.91;5366921;32;34355;-73
2023/06/03 05:39:35;;;;;;;;;;;;;;;23.95;33.73;100514.72;5376712;32;33214;-74
2023/06/03 05:42:38;;;;;;;;;;;;;;;25.05;31.59;100512.31;5384716;32;33442;-73
2023/06/03 05:45:40;;;;;;;;;;;;;;;25.49;31.04;100511.59;5343368;32;862860;-75
2023/06/03 05:48:44;;;;;;;;;;;;;;;24.77;32.08;100518.63;5383282;32;34282;-74
2023/06/03 05:51:46;;;;;;;;;;;;;;;23.83;33.85;100515.00;5381819;32;33499;-73
2023/06/03 05:54:48;;;;;;;;;;;;;;;23.36;35.00;100525.56;5387987;32;33788;-73
2023/06/03 05:57:51;;;;;;;;;;;;;;;24.49;32.91;100518.63;5370754;32;33804;-74
2023/06/03 06:00:52;;;;;;;;;;;;;;;25.46;30.96;100525.37;5392425;32;33724;-75
2023/06/03 06:03:55;;;;;;;;;;;;;;;24.63;32.47;100530.72;5381933;32;33513;-74
2023/06/03 06:07:00;;;;;;;;;;;;;;;25.64;30.98;100539.69;5379391;32;34076;-73
2023/06/03 06:10:02;;;;;;;;;;;;;;;27.38;27.87;100536.94;5389610;32;34228;-73
2023/06/03 06:13:09;;;;;;;;;;;;;;;27.23;28.10;100540.25;5373643;32;33667;-73
2023/06/03 06:16:11;;;;;;;;;;;;;;;25.49;31.15;100538.50;5390814;32;44449;-72
2023/06/03 06:19:14;;;;;;;;;;;;;;;25.97;30.56;100538.16;5390837;32;34627;-73
2023/06/03 06:22:17;;;;;;;;;;;;;;;26.69;29.06;100544.22;5362511;32;33961;-73
2023/06/03 06:25:19;;;;;;;;;;;;;;;25.18;31.82;100544.22;5385646;32;33572;-73
2023/06/03 06:28:22;;;;;;;;;;;;;;;24.00;33.51;100543.84;5380817;32;33549;-74
2023/06/03 06:31:24;;;;;;;;;;;;;;;24.05;33.77;100545.09;5380059;32;33889;-72
2023/06/03 06:34:31;;;;;;;;;;;;;;;22.32;36.43;100558.81;5394691;32;33776;-72
2023/06/03 06:37:33;;;;;;;;;;;;;;;22.29;36.64;100559.09;5388412;32;33830;-73
2023/06/03 06:40:36;;;;;;;;;;;;;;;21.90;37.73;100569.47;5371410;32;33205;-72
2023/06/03 06:43:39;;;;;;;;;;;;;;;22.48;37.08;100574.41;5383321;32;33705;-73
2023/06/03 06:46:41;;;;;;;;;;;;;;;23.47;35.08;100565.66;5388977;32;45037;-74
2023/06/03 06:49:43;;;;;;;;;;;;;;;22.20;37.61;100571.41;5365932;32;34406;-72
2023/06/03 06:52:45;;;;;;;;;;;;;;;21.74;38.46;100571.72;5388339;32;34024;-75
2023/06/03 06:55:52;;;;;;;;;;;;;;;23.15;35.99;100574.75;5385526;32;33796;-74
2023/06/03 06:58:54;;;;;;;;;;;;;;;23.78;34.37;100572.66;5388427;32;33741;-74
2023/06/03 07:01:56;;;;;;;;;;;;;;;23.80;34.08;100579.72;5400228;32;33453;-75
2023/06/03 07:04:59;;;;;;;;;;;;;;;23.77;34.72;100573.66;5394478;32;33769;-76
2023/06/03 07:08:02;;;;;;;;;;;;;;;21.75;38.96;100579.59;5401468;32;34578;-75
2023/06/03 07:11:04;;;;;;;;;;;;;;;23.00;36.28;100583.31;5391926;32;34159;-74
2023/06/03 07:14:07;;;;;;;;;;;;;;;21.45;39.13;100592.84;5405279;32;33245;-73
2023/06/03 07:17:09;;;;;;;;;;;;;;;23.07;35.96;100581.81;5381697;32;33602;-75
2023/06/03 07:20:17;;;;;;;;;;;;;;;23.45;35.62;100578.38;5358073;32;45104;-73
2023/06/03 07:23:25;;;;;;;;;;;;;;;21.48;39.43;100582.72;5384416;32;33887;-74
2023/06/03 07:26:28;;;;;;;;;;;;;;;23.56;35.89;100585.44;5379124;32;33494;-75
2023/06/03 07:29:31;;;;;;;;;;;;;;;22.84;36.94;100595.34;5386898;32;34569;-72
2023/06/03 07:32:33;;;;;;;;;;;;;;;22.84;36.67;100597.16;5363726;32;33825;-74
2023/06/03 07:35:35;;;;;;;;;;;;;;;21.68;38.35;100594.47;5385613;32;34012;-77
2023/06/03 07:38:37;;;;;;;;;;;;;;;22.41;37.60;100607.09;5385097;32;33627;-75
2023/06/03 07:41:51;;;;;;;;;;;;;;;22.24;38.45;100599.63;5374444;32;33873;-74
2023/06/03 07:44:55;;;;;;;;;;;;;;;22.26;38.65;100602.19;5374355;32;34234;-76
2023/06/03 07:47:57;;;;;;;;;;;;;;;23.05;37.54;100603.34;5381458;32;33804;-75
2023/06/03 07:50:59;;;;;;;;;;;;;;;22.31;39.07;100606.16;5388114;32;34124;-75
2023/06/03 07:54:05;;;;;;;;;;;;;;;23.16;37.69;100607.78;5380750;32;33681;-74
2023/06/03 07:57:07;;;;;;;;;;;;;;;24.56;34.89;100594.94;5370487;32;33692;-74
2023/06/03 08:00:09;;;;;;;;;;;;;;;22.47;37.69;100616.41;5386075;32;33752;-74
2023/06/03 08:03:15;;;;;;;;;;;;;;;22.68;37.29;100611.91;5380981;32;44037;-75
2023/06/03 08:06:17;;;;;;;;;;;;;;;22.32;38.42;100617.72;5374657;32;33513;-75
2023/06/03 08:09:22;;;;;;;;;;;;;;;21.70;39.33;100618.41;5368791;32;33584;-75
2023/06/03 08:12:27;;;;;;;;;;;;;;;23.76;35.74;100614.03;5376584;32;33747;-75
2023/06/03 08:15:32;;;;;;;;;;;;;;;23.00;36.25;100613.66;5383602;32;33523;-75
2023/06/03 08:18:34;;;;;;;;;;;;;;;25.09;33.19;100607.81;5384462;32;33495;-74
2023/06/03 08:21:37;;;;;;;;;;;;;;;25.22;32.42;100606.63;5398689;32;33232;-75
2023/06/03 08:24:42;;;;;;;;;;;;;;;24.42;33.23;100618.75;5379264;32;45194;-76
2023/06/03 08:27:44;;;;;;;;;;;;;;;25.33;31.95;100615.34;5390294;32;34053;-75
2023/06/03 08:30:46;;;;;;;;;;;;;;;24.82;32.28;100621.19;5368233;32;33755;-75
2023/06/03 08:33:49;;;;;;;;;;;;;;;24.75;31.97;100620.09;5387605;32;33833;-76
2023/06/03 08:36:51;;;;;;;;;;;;;;;25.06;31.17;100610.81;5380979;32;33865;-74
2023/06/03 08:39:53;;;;;;;;;;;;;;;23.71;33.74;100629.72;5370812;32;33215;-76
2023/06/03 08:42:59;;;;;;;;;;;;;;;24.54;32.25;100617.59;5373772;32;33971;-75
2023/06/03 08:46:08;;;;;;;;;;;;;;;27.07;28.25;100614.91;5366778;32;33383;-75
2023/06/03 08:49:11;;;;;;;;;;;;;;;27.43;27.45;100616.37;5389877;32;35615;-75
2023/06/03 08:52:13;;;;;;;;;;;;;;;27.07;28.29;100618.44;5379075;32;33498;-74
2023/06/03 08:55:15;;;;;;;;;;;;;;;26.97;27.99;100620.37;5386311;32;34351;-75
2023/06/03 08:58:21;;;;;;;;;;;;;;;28.45;25.73;100609.00;5384814;32;34213;-75
2023/06/03 09:01:27;;;;;;;;;;;;;;;25.65;29.70;100630.19;5378516;32;33634;-75
2023/06/03 09:04:29;;;;;;;;;;;;;;;27.12;27.51;100620.66;5374721;32;33749;-76
2023/06/03 09:07:31;;;;;;;;;;;;;;;27.30;27.36;100628.66;5382719;32;34413;-75
2023/06/03 09:10:33;;;;;;;;;;;;;;;27.38;27.14;100623.31;5389932;32;35868;-75
2023/06/03 09:13:35;;;;;;;;;;;;;;;26.86;27.46;100610.72;5367639;32;33456;-75
2023/06/03 09:16:37;;;;;;;;;;;;;;;28.73;25.04;100609.47;5369452;32;34068;-75
2023/06/03 09:19:41;;;;;;;;;;;;;;;27.71;25.83;100624.28;5373935;32;44468;-74
2023/06/03 09:22:46;;;;;;;;;;;;;;;29.43;23.98;100612.28;5379015;32;34668;-74
2023/06/03 09:25:48;;;;;;;;;;;;;;;28.04;25.66;100617.91;5370314;32;33538;-76
2023/06/03 09:28:50;;;;;;;;;;;;;;;27.76;25.90;100627.34;5368013;32;33496;-75
2023/06/03 09:31:52;;;;;;;;;;;;;;;26.18;27.56;100629.38;5389951;32;35294;-76
2023/06/03 09:34:54;;;;;;;;;;;;;;;28.17;24.92;100627.37;5363684;32;32957;-75
2023/06/03 09:38:04;;;;;;;;;;;;;;;26.63;27.11;100626.56;5381253;32;34277;-75
2023/06/03 09:41:13;;;;;;;;;;;;;;;30.22;22.83;100612.16;5384510;32;33495;-76
2023/06/03 09:44:15;;;;;;;;;;;;;;;28.52;24.19;100616.25;5366505;32;44920;-76
2023/06/03 09:47:19;;;;;;;;;;;;;;;31.01;21.91;100610.72;5389977;32;33778;-75
2023/06/03 09:50:22;;;;;;;;;;;;;;;29.92;22.88;100609.31;5368678;32;33709;-75
2023/06/03 09:53:24;;;;;;;;;;;;;;;30.01;22.54;100610.91;5374709;32;34175;-76
2023/06/03 09:56:29;;;;;;;;;;;;;;;29.88;22.58;100602.56;5383468;32;33746;-76
2023/06/03 09:59:31;;;;;;;;;;;;;;;28.92;23.79;100602.84;5352517;32;33729;-76
2023/06/03 10:02:36;;;;;;;;;;;;;;;28.42;24.22;100596.66;5375884;32;34163;-76
2023/06/03 10:05:39;;;;;;;;;;;;;;;30.32;22.43;100602.75;5381361;32;33383;-75
2023/06/03 10:08:41;;;;;;;;;;;;;;;31.35;21.04;100601.16;5388373;32;44867;-74
2023/06/03 10:11:47;;;;;;;;;;;;;;;30.17;22.04;100608.12;5380050;32;33974;-75
2023/06/03 10:14:49;;;;;;;;;;;;;;;31.90;20.36;100602.44;5369361;32;33398;-76
2023/06/03 10:17:51;;;;;;;;;;;;;;;30.58;21.15;100604.19;5358310;32;33543;-75
2023/06/03 10:20:54;;;;;;;;;;;;;;;30.71;21.27;100599.84;5377399;32;32958;-75
2023/06/03 10:23:56;;;;;;;;;;;;;;;29.95;22.10;100606.25;5385127;32;33734;-75
2023/06/03 10:27:00;;;;;;;;;;;;;;;30.56;21.70;100598.97;5363363;32;32342;-75
2023/06/03 10:30:03;;;;;;;;;;;;;;;30.56;21.59;100598.97;5375378;32;33828;-76
2023/06/03 10:33:09;;;;;;;;;;;;;;;32.15;19.82;100597.47;5381668;32;32879;-75
2023/06/03 10:36:12;;;;;;;;;;;;;;;30.73;21.42;100597.81;5354633;32;47174;-76
2023/06/03 10:39:14;;;;;;;;;;;;;;;31.13;20.83;100592.94;5367693;32;33644;-75
2023/06/03 10:42:18;;;;;;;;;;;;;;;29.24;22.76;100599.16;5376326;32;34308;-75
2023/06/03 10:45:20;;;;;;;;;;;;;;;29.80;22.32;100592.63;5389709;32;34209;-75
2023/06/03 10:48:23;;;;;;;;;;;;;;;28.65;23.73;100599.50;5376329;32;33852;-75
2023/06/03 10:51:45;;;;;;;;;;;;;;;29.67;22.88;100600.50;5376527;32;35944;-76
2023/06/03 10:54:53;;;;;;;;;;;;;;;28.65;24.32;100604.06;5381936;32;45250;-76
2023/06/03 10:58:05;;;;;;;;;;;;;;;30.65;22.00;100594.28;5378190;32;35007;-75
2023/06/03 11:01:07;;;;;;;;;;;;;;;33.86;18.34;100588.59;5386643;32;33274;-76
2023/06/03 11:04:09;;;;;;;;;;;;;;;29.85;22.44;100586.66;5380260;32;33428;-75
2023/06/03 11:07:30;;;;;;;;;;;;;;;30.09;22.61;100588.34;5373980;32;44323;-75
2023/06/03 11:10:39;;;;;;;;;;;;;;;27.24;26.25;100604.03;5381223;32;34090;-75
2023/06/03 11:13:44;;;;;;;;;;;;;;;27.77;25.93;100597.47;5379317;32;44375;-74
2023/06/03 11:16:55;;;;;;;;;;;;;;;28.57;24.80;100586.84;5391026;32;34382;-75
2023/06/03 11:19:58;;;;;;;;;;;;;;;28.66;25.03;100594.91;5378977;32;34595;-75
2023/06/03 11:23:00;;;;;;;;;;;;;;;29.65;23.68;100586.31;5387585;32;33900;-76
2023/06/03 11:26:22;;;;;;;;;;;;;;;31.97;21.01;100574.28;5375934;32;35719;-75
2023/06/03 11:30:00;;;;;;;;;;;;;;;32.80;20.08;100571.81;5381952;32;33924;-76
2023/06/03 11:33:09;;;;;;;;;;;;;;;28.66;24.70;100584.09;5308597;32;34609;-77
2023/06/03 11:36:30;;;;;;;;;;;;;;;27.71;26.10;100583.78;5388970;32;44660;-77
2023/06/03 11:39:59;;;;;;;;;;;;;;;29.10;24.17;100589.91;5379830;32;33785;-76
2023/06/03 11:43:02;;;;;;;;;;;;;;;27.56;25.68;100590.78;5361823;32;34146;-76
2023/06/03 11:46:04;;;;;;;;;;;;;;;26.95;27.02;100588.19;5382532;32;33368;-75
2023/06/03 11:49:06;;;;;;;;;;;;;;;26.54;27.90;100586.25;5390084;32;33351;-77
2023/06/03 11:52:09;;;;;;;;;;;;;;;25.38;29.45;100585.31;5368512;32;34368;-75
2023/06/03 11:55:11;;;;;;;;;;;;;;;26.45;28.04;100583.50;5375002;32;44245;-76
2023/06/03 11:58:22;;;;;;;;;;;;;;;26.97;27.12;100577.22;5366638;32;33915;-75
2023/06/03 12:01:24;;;;;;;;;;;;;;;27.07;26.77;100572.59;5382960;32;33370;-74
2023/06/03 12:04:27;;;;;;;;;;;;;;;28.46;24.93;100568.25;5392310;32;33519;-76
2023/06/03 12:07:29;;;;;;;;;;;;;;;28.10;24.43;100562.37;5371754;32;33761;-75
2023/06/03 12:10:39;;;;;;;;;;;;;;;26.46;26.21;100577.09;5376864;32;33868;-76
2023/06/03 12:13:42;;;;;;;;;;;;;;;27.62;24.67;100557.72;5370249;32;44531;-76
2023/06/03 12:16:44;;;;;;;;;;;;;;;26.56;26.08;100574.31;5373813;32;32912;-75
2023/06/03 12:19:47;;;;;;;;;;;;;;;26.26;26.48;100564.78;5384688;32;33377;-75
2023/06/03 12:22:50;;;;;;;;;;;;;;;25.95;27.51;100568.91;5380286;32;33868;-75
2023/06/03 12:25:55;;;;;;;;;;;;;;;26.43;26.72;100565.81;5389768;32;34049;-75
2023/06/03 12:29:17;;;;;;;;;;;;;;;26.22;26.77;100560.75;5368607;32;33670;-75
2023/06/03 12:32:20;;;;;;;;;;;;;;;25.88;26.68;100561.44;5387712;32;45087;-75
2023/06/03 12:35:26;;;;;;;;;;;;;;;26.35;25.98;100563.03;5385662;32;34218;-74
2023/06/03 12:38:29;;;;;;;;;;;;;;;25.28;26.83;100557.62;5363250;32;33395;-75
2023/06/03 12:41:31;;;;;;;;;;;;;;;25.48;26.95;100553.78;5385391;32;33553;-76
2023/06/03 12:44:40;;;;;;;;;;;;;;;25.14;27.34;100550.91;5367598;32;33387;-75
2023/06/03 12:47:44;;;;;;;;;;;;;;;25.72;25.52;100550.50;5382551;32;43258;-74
2023/06/03 12:50:46;;;;;;;;;;;;;;;27.25;23.58;100537.44;5380961;32;34013;-75
2023/06/03 12:53:49;;;;;;;;;;;;;;;26.15;24.66;100541.66;5386675;32;33877;-75
2023/06/03 12:56:51;;;;;;;;;;;;;;;25.80;25.23;100542.53;5370816;32;33735;-75
2023/06/03 12:59:56;;;;;;;;;;;;;;;26.51;24.61;100521.87;5381824;32;32809;-75
2023/06/03 13:03:00;;;;;;;;;;;;;;;25.21;25.83;100549.31;5390386;32;34132;-74
2023/06/03 13:06:02;;;;;;;;;;;;;;;24.53;27.27;100529.91;5378888;32;34587;-75
2023/06/03 13:09:04;;;;;;;;;;;;;;;24.28;27.30;100526.84;5391179;32;33717;-75
2023/06/03 13:12:06;;;;;;;;;;;;;;;24.55;27.00;100538.69;5381817;32;33895;-75
2023/06/03 13:15:11;;;;;;;;;;;;;;;25.51;25.71;100529.28;5369685;32;44672;-76
2023/06/03 13:18:16;;;;;;;;;;;;;;;25.68;25.05;100514.13;5385483;32;34060;-76
2023/06/03 13:21:18;;;;;;;;;;;;;;;25.51;25.17;100525.75;5360269;32;33432;-75
2023/06/03 13:24:20;;;;;;;;;;;;;;;25.52;25.11;100527.44;5375055;32;34166;-75
2023/06/03 13:27:22;;;;;;;;;;;;;;;25.44;25.57;100521.97;5382491;32;35952;-76
2023/06/03 13:30:24;;;;;;;;;;;;;;;25.54;25.56;100526.28;5388629;32;34136;-76
2023/06/03 13:33:27;;;;;;;;;;;;;;;25.07;26.30;100529.16;5381673;32;33562;-76
2023/06/03 13:36:29;;;;;;;;;;;;;;;24.93;26.05;100526.94;5383731;32;34243;-76
2023/06/03 13:39:34;;;;;;;;;;;;;;;25.12;25.87;100526.00;5382773;32;34139;-75
2023/06/03 13:42:37;;;;;;;;;;;;;;;24.34;26.79;100530.78;5376591;32;33270;-75
2023/06/03 13:45:39;;;;;;;;;;;;;;;25.85;25.39;100515.16;5390323;32;33014;-76
2023/06/03 13:48:41;;;;;;;;;;;;;;;25.31;26.06;100517.81;5381359;32;44532;-75
2023/06/03 13:51:43;;;;;;;;;;;;;;;24.87;26.29;100522.16;5388909;32;33071;-74
2023/06/03 13:54:45;;;;;;;;;;;;;;;25.36;25.90;100510.12;5367419;32;34137;-75
2023/06/03 13:57:48;;;;;;;;;;;;;;;24.50;26.73;100520.31;5381179;32;34179;-76
2023/06/03 14:00:50;;;;;;;;;;;;;;;25.52;25.42;100505.91;5387400;32;33889;-75
2023/06/03 14:03:54;;;;;;;;;;;;;;;25.41;25.39;100515.06;5381138;32;32261;-74
2023/06/03 14:06:56;;;;;;;;;;;;;;;24.28;26.37;100510.72;5375707;32;34460;-76
2023/06/03 14:09:58;;;;;;;;;;;;;;;24.96;25.67;100513.16;5367150;32;34155;-76
2023/06/03 14:13:01;;;;;;;;;;;;;;;24.82;26.05;100503.75;5373459;32;33372;-75
2023/06/03 14:16:03;;;;;;;;;;;;;;;25.69;24.81;100504.19;5382549;32;33616;-74
2023/06/03 14:19:05;;;;;;;;;;;;;;;25.53;24.31;100507.59;5380152;32;33713;-74
2023/06/03 14:22:07;;;;;;;;;;;;;;;24.56;25.47;100508.13;5387981;32;35420;-75
2023/06/03 14:25:09;;;;;;;;;;;;;;;24.57;26.22;100493.69;5376737;32;33546;-76
2023/06/03 14:28:11;;;;;;;;;;;;;;;25.23;25.24;100490.81;5387732;32;45183;-76
2023/06/03 14:31:15;;;;;;;;;;;;;;;24.62;25.87;100495.94;5380650;32;34049;-75
2023/06/03 14:34:34;;;;;;;;;;;;;;;24.77;25.88;100489.91;5383913;32;34150;-76
2023/06/03 14:37:36;;;;;;;;;;;;;;;24.50;25.63;100481.84;5370260;32;36280;-75
2023/06/03 14:40:38;;;;;;;;;;;;;;;24.09;26.51;100491.97;5377278;32;33185;-75
2023/06/03 14:43:40;;;;;;;;;;;;;;;24.56;26.12;100489.31;5387267;32;44587;-75
2023/06/03 14:46:42;;;;;;;;;;;;;;;24.87;25.93;100483.66;5377871;32;33084;-76
2023/06/03 14:49:48;;;;;;;;;;;;;;;24.42;26.37;100479.91;5389196;32;33459;-75
2023/06/03 14:52:50;;;;;;;;;;;;;;;24.45;26.38;100479.59;5360502;32;34537;-74
2023/06/03 14:55:52;;;;;;;;;;;;;;;24.87;25.92;100486.34;5382880;32;33717;-75
2023/06/03 14:58:55;;;;;;;;;;;;;;;25.11;25.68;100475.88;5373583;32;34108;-76
2023/06/03 15:01:57;;;;;;;;;;;;;;;25.48;25.20;100477.63;5365614;32;33774;-76
2023/06/03 15:04:59;;;;;;;;;;;;;;;24.82;25.94;100473.34;5387984;32;34880;-75
2023/06/03 15:08:01;;;;;;;;;;;;;;;24.89;25.62;100468.22;5380346;32;35118;-75
2023/06/03 15:11:03;;;;;;;;;;;;;;;24.11;26.08;100470.34;5388105;32;33860;-75
2023/06/03 15:14:05;;;;;;;;;;;;;;;24.72;25.83;100475.22;5384007;32;33551;-75
2023/06/03 15:17:08;;;;;;;;;;;;;;;24.14;26.45;100468.19;5391217;32;34094;-75
2023/06/03 15:20:10;;;;;;;;;;;;;;;24.75;26.12;100469.56;5385614;32;36543;-76
2023/06/03 15:23:12;;;;;;;;;;;;;;;25.16;25.66;100467.37;5375576;32;33558;-76
2023/06/03 15:26:17;;;;;;;;;;;;;;;25.78;24.80;100471.88;5381226;32;33695;-75
2023/06/03 15:29:19;;;;;;;;;;;;;;;25.05;25.71;100465.72;5384900;32;33615;-75
2023/06/03 15:32:21;;;;;;;;;;;;;;;24.77;25.97;100473.78;5370602;32;31930;-74
2023/06/03 15:35:23;;;;;;;;;;;;;;;25.36;25.07;100458.16;5366682;32;32821;-74
2023/06/03 15:38:25;;;;;;;;;;;;;;;24.70;25.95;100455.72;5388916;32;33594;-75
2023/06/03 15:41:27;;;;;;;;;;;;;;;24.96;26.02;100454.03;5383667;32;33721;-75